Time;durP1;ratioP1;P1;durP2;ratioP2;P2;SDS_P1;SDS_P2;PMS_P1;PMS_P2;Temp;Humidity;BMP_temperature;BMP_pressure;BME280_temperature;BME280_humidity;BME280_pressure;Samples;Min_cycle;Max_cycle;Signal;HPM_P1;HPM_P2
2022/11/11 00:01:36;;;;;;;7.60;2.53;;;12.50;99.90;;;;;;5090980;28;20027;-72
2022/11/11 00:04:02;;;;;;;11.13;2.47;;;12.50;99.90;;;;;;5090271;28;20089;-72
2022/11/11 00:06:28;;;;;;;9.90;2.55;;;12.50;99.90;;;;;;5090627;28;20027;-72
2022/11/11 00:08:53;;;;;;;10.95;2.40;;;12.50;99.90;;;;;;5090867;28;20027;-73
2022/11/11 00:11:19;;;;;;;8.07;2.50;;;12.50;99.90;;;;;;5090618;28;20518;-73
2022/11/11 00:13:45;;;;;;;6.40;2.80;;;12.50;99.90;;;;;;5089715;28;20066;-72
2022/11/11 00:16:16;;;;;;;11.55;2.70;;;12.50;99.90;;;;;;5087785;28;20447;-73
2022/11/11 00:27:04;;;;;;;11.07;3.05;;;12.50;99.90;;;;;;5105374;28;20042;-73
2022/11/11 00:29:30;;;;;;;18.38;4.10;;;12.50;99.90;;;;;;5103648;28;20036;-73
2022/11/11 00:35:51;;;;;;;10.82;3.72;;;12.50;99.90;;;;;;5108187;28;20016;-73
2022/11/11 00:37:26;;;;;;;13.13;3.72;;;12.50;99.90;;;;;;5088727;28;20064;-72
2022/11/11 00:39:52;;;;;;;13.52;4.18;;;12.50;99.90;;;;;;5087311;28;20040;-72
2022/11/11 00:42:17;;;;;;;10.43;3.90;;;12.50;99.90;;;;;;5110846;28;20510;-72
2022/11/11 00:44:43;;;;;;;15.43;4.93;;;12.50;99.90;;;;;;5106383;28;20046;-73
2022/11/11 00:52:38;;;;;;;11.30;3.88;;;12.40;99.90;;;;;;5109456;28;20656;-72
2022/11/11 00:55:04;;;;;;;10.68;4.03;;;12.50;99.90;;;;;;5088913;28;20031;-72
2022/11/11 00:57:31;;;;;;;10.23;3.35;;;12.50;99.90;;;;;;5089268;28;20035;-72
2022/11/11 00:59:57;;;;;;;14.43;4.68;;;12.50;99.90;;;;;;5105979;28;20158;-73
2022/11/11 01:02:22;;;;;;;12.60;4.70;;;12.50;99.90;;;;;;5082906;28;20116;-73
2022/11/11 01:04:48;;;;;;;12.88;4.97;;;12.50;99.90;;;;;;5091126;28;20084;-73
2022/11/11 01:07:14;;;;;;;10.90;4.57;;;12.50;99.90;;;;;;5110230;28;20092;-73
2022/11/11 01:09:39;;;;;;;13.55;4.90;;;12.50;99.90;;;;;;5108689;28;20023;-72
2022/11/11 01:12:05;;;;;;;15.35;5.32;;;12.50;99.90;;;;;;5108618;28;20544;-72
2022/11/11 01:14:31;;;;;;;11.32;4.70;;;12.50;99.90;;;;;;5073293;28;20028;-72
2022/11/11 01:16:57;;;;;;;11.23;5.43;;;12.50;99.90;;;;;;5105822;28;20027;-73
2022/11/11 01:19:22;;;;;;;8.73;5.03;;;12.50;99.90;;;;;;5106822;28;20034;-73
2022/11/11 01:21:48;;;;;;;11.20;4.90;;;12.50;99.90;;;;;;5106997;28;20111;-72
2022/11/11 01:24:14;;;;;;;10.32;5.00;;;12.50;99.90;;;;;;5085994;28;20035;-72
2022/11/11 01:26:39;;;;;;;10.73;4.63;;;12.50;99.90;;;;;;5107973;28;20019;-72
2022/11/11 01:29:05;;;;;;;10.32;4.57;;;12.50;99.90;;;;;;5104470;28;20057;-73
2022/11/11 01:31:31;;;;;;;9.95;5.15;;;12.50;99.90;;;;;;5071561;28;20108;-72
2022/11/11 01:33:57;;;;;;;10.30;4.88;;;12.60;99.90;;;;;;5090128;28;20126;-73
2022/11/11 01:36:25;;;;;;;15.32;4.72;;;12.50;99.90;;;;;;5108340;28;20651;-73
2022/11/11 01:38:54;;;;;;;10.95;4.78;;;12.50;99.90;;;;;;5089042;28;20353;-72
2022/11/11 01:41:31;;;;;;;12.27;4.60;;;12.60;99.90;;;;;;5087335;28;20076;-72
2022/11/11 01:44:00;;;;;;;9.50;4.35;;;12.60;99.90;;;;;;5090136;28;20681;-72
2022/11/11 01:46:40;;;;;;;11.75;4.72;;;12.50;99.90;;;;;;5085080;28;20024;-73
2022/11/11 01:49:17;;;;;;;9.98;4.47;;;12.60;99.90;;;;;;5107654;28;20097;-73
2022/11/11 01:51:46;;;;;;;13.02;5.07;;;12.50;99.90;;;;;;5103599;28;20032;-72
2022/11/11 01:54:21;;;;;;;15.55;5.75;;;12.60;99.90;;;;;;5106140;28;20035;-72
2022/11/11 01:56:50;;;;;;;10.32;4.75;;;12.50;99.90;;;;;;5107269;28;20019;-72
2022/11/11 01:59:16;;;;;;;8.30;4.30;;;12.50;99.90;;;;;;5105314;28;20045;-72
2022/11/11 02:01:43;;;;;;;15.48;4.47;;;12.50;99.90;;;;;;5087811;28;20055;-72
2022/11/11 02:06:59;;;;;;;9.65;4.38;;;12.60;99.90;;;;;;5105103;28;20053;-72
2022/11/11 02:09:25;;;;;;;13.20;5.43;;;12.60;99.90;;;;;;5105238;28;20038;-72
2022/11/11 02:14:44;;;;;;;11.50;4.68;;;12.50;99.90;;;;;;5104316;28;20047;-73
2022/11/11 02:17:12;;;;;;;12.65;5.35;;;12.50;99.90;;;;;;5085243;28;20058;-72
2022/11/11 02:19:49;;;;;;;11.65;4.40;;;12.50;99.90;;;;;;5090633;28;20157;-72
2022/11/11 02:22:26;;;;;;;15.57;5.32;;;12.50;99.90;;;;;;5084986;28;20028;-72
2022/11/11 02:24:54;;;;;;;14.30;5.30;;;12.50;99.90;;;;;;5088720;28;20085;-73
2022/11/11 02:27:21;;;;;;;12.80;6.10;;;12.50;99.90;;;;;;5070153;28;20030;-73
2022/11/11 02:29:51;;;;;;;14.23;4.97;;;12.50;99.90;;;;;;5088709;28;20063;-73
2022/11/11 02:32:18;;;;;;;13.23;4.88;;;12.50;99.90;;;;;;5107554;28;20101;-72
2022/11/11 02:34:44;;;;;;;9.18;4.43;;;12.50;99.90;;;;;;5109202;28;20560;-73
2022/11/11 02:37:10;;;;;;;13.88;4.40;;;12.50;99.90;;;;;;5108684;28;20031;-72
2022/11/11 02:39:42;;;;;;;13.15;4.60;;;12.50;99.90;;;;;;5110275;28;20612;-72
2022/11/11 02:42:09;;;;;;;17.83;4.35;;;12.40;99.90;;;;;;5093460;28;20055;-72
2022/11/11 02:44:39;;;;;;;11.20;4.45;;;12.40;99.90;;;;;;5107466;28;20550;-73
2022/11/11 02:47:05;;;;;;;10.98;4.05;;;12.40;99.90;;;;;;5109218;28;20062;-72
2022/11/11 02:49:30;;;;;;;14.23;4.45;;;12.40;99.90;;;;;;5111387;28;20055;-72
2022/11/11 02:51:56;;;;;;;7.10;3.63;;;12.40;99.90;;;;;;5092183;28;20043;-72
2022/11/11 02:54:22;;;;;;;13.07;4.95;;;12.30;99.90;;;;;;5110729;28;20019;-72
2022/11/11 02:57:06;;;;;;;7.63;3.97;;;12.30;99.90;;;;;;5111264;28;20921;-72
2022/11/11 02:59:32;;;;;;;10.90;4.00;;;12.30;99.90;;;;;;5091335;28;20027;-72
2022/11/11 03:01:58;;;;;;;10.77;5.03;;;12.30;99.90;;;;;;5109570;28;20114;-72
2022/11/11 03:04:23;;;;;;;11.00;4.22;;;12.30;99.90;;;;;;5090457;28;20032;-72
2022/11/11 03:06:49;;;;;;;9.93;4.47;;;12.30;99.90;;;;;;5076638;28;20055;-72
2022/11/11 03:09:15;;;;;;;10.93;4.45;;;12.30;99.90;;;;;;5091685;28;20027;-72
2022/11/11 03:11:41;;;;;;;11.85;4.63;;;12.30;99.90;;;;;;5106576;28;20061;-72
2022/11/11 03:14:07;;;;;;;12.65;4.63;;;12.20;99.90;;;;;;5110735;28;20023;-72
2022/11/11 03:19:18;;;;;;;8.68;4.40;;;12.30;99.90;;;;;;5109787;28;20406;-72
2022/11/11 03:21:44;;;;;;;13.45;4.30;;;12.30;99.90;;;;;;5074369;28;20036;-73
2022/11/11 03:24:10;;;;;;;10.95;4.55;;;12.20;99.90;;;;;;5106956;28;20026;-72
2022/11/11 03:26:36;;;;;;;9.50;4.63;;;12.30;99.90;;;;;;5092662;28;20722;-71
2022/11/11 03:29:03;;;;;;;7.97;3.63;;;12.20;99.90;;;;;;5090170;28;20031;-71
2022/11/11 03:31:29;;;;;;;10.75;4.30;;;12.20;99.90;;;;;;5109408;28;20059;-72
2022/11/11 03:33:55;;;;;;;14.32;4.55;;;12.20;99.90;;;;;;5108022;28;20035;-72
2022/11/11 03:38:14;;;;;;;13.30;4.55;;;12.10;99.90;;;;;;5087837;28;20027;-72
2022/11/11 03:39:06;;;;;;;13.20;4.90;;;12.10;99.90;;;;;;5094197;28;20031;-71
2022/11/11 03:41:32;;;;;;;10.82;4.72;;;12.10;99.90;;;;;;5088735;28;20039;-73
2022/11/11 03:43:57;;;;;;;10.45;4.50;;;12.10;99.90;;;;;;5092671;28;20326;-72
2022/11/11 03:46:23;;;;;;;11.18;4.25;;;12.10;99.90;;;;;;5091644;28;20055;-71
2022/11/11 03:48:49;;;;;;;16.60;5.05;;;12.10;99.90;;;;;;5090888;28;20321;-71
2022/11/11 03:51:14;;;;;;;12.13;4.53;;;12.10;99.90;;;;;;5088486;28;20054;-71
2022/11/11 03:53:40;;;;;;;10.48;4.38;;;12.10;99.90;;;;;;5072912;28;20526;-71
2022/11/11 03:56:06;;;;;;;12.13;5.18;;;12.10;99.90;;;;;;5109512;28;20039;-71
2022/11/11 03:58:32;;;;;;;16.33;5.20;;;12.10;99.90;;;;;;5092008;28;20027;-73
2022/11/11 04:00:57;;;;;;;10.88;4.43;;;12.00;99.90;;;;;;5089656;28;20035;-73
2022/11/11 04:11:43;;;;;;;9.35;4.68;;;12.00;99.90;;;;;;5107302;28;20023;-71
2022/11/11 04:16:56;;;;;;;12.23;5.03;;;12.00;99.90;;;;;;5106884;28;20602;-71
2022/11/11 04:22:07;;;;;;;9.25;4.20;;;11.90;99.90;;;;;;5107565;28;20039;-71
2022/11/11 04:27:18;;;;;;;12.80;5.07;;;11.90;99.90;;;;;;5109095;28;20394;-73
2022/11/11 04:29:46;;;;;;;12.45;4.68;;;11.90;99.90;;;;;;5073621;28;20115;-72
2022/11/11 04:32:37;;;;;;;12.65;5.68;;;11.90;99.90;;;;;;5110395;28;20414;-72
2022/11/11 04:35:06;;;;;;;14.55;5.45;;;11.80;99.90;;;;;;5105244;28;20136;-72
2022/11/11 04:37:42;;;;;;;14.45;5.47;;;11.90;99.90;;;;;;5104584;28;20065;-73
2022/11/11 04:43:13;;;;;;;10.98;4.63;;;11.80;99.90;;;;;;5085729;28;20032;-72
2022/11/11 04:45:38;;;;;;;16.17;5.05;;;11.80;99.90;;;;;;5083760;28;20035;-72
2022/11/11 04:48:09;;;;;;;10.35;5.15;;;11.80;99.90;;;;;;5094369;28;20035;-72
2022/11/11 04:50:37;;;;;;;9.00;4.70;;;11.80;99.90;;;;;;5089460;28;20039;-72
2022/11/11 04:53:05;;;;;;;9.52;4.63;;;11.80;99.90;;;;;;5106912;28;20085;-72
2022/11/11 04:58:17;;;;;;;12.98;5.38;;;11.80;99.90;;;;;;5104289;28;20063;-72
2022/11/11 05:00:43;;;;;;;12.43;4.82;;;11.80;99.90;;;;;;5108031;28;20155;-72
2022/11/11 05:03:23;;;;;;;13.80;5.53;;;11.80;99.90;;;;;;5108088;28;20804;-72
2022/11/11 05:08:57;;;;;;;12.50;5.32;;;11.80;99.90;;;;;;5107212;28;20055;-72
2022/11/11 05:11:35;;;;;;;15.18;5.68;;;11.80;99.90;;;;;;5090983;28;20445;-72
2022/11/11 05:22:31;;;;;;;10.55;5.40;;;11.60;99.90;;;;;;5115142;28;20494;-72
2022/11/11 05:27:42;;;;;;;11.52;5.70;;;11.60;99.90;;;;;;5108900;28;20023;-72
2022/11/11 05:30:10;;;;;;;10.88;5.28;;;11.60;99.90;;;;;;5084263;28;20029;-72
2022/11/11 05:32:36;;;;;;;9.85;5.55;;;11.60;99.90;;;;;;5100555;28;20946;-72
2022/11/11 05:35:02;;;;;;;9.93;5.20;;;11.60;99.90;;;;;;5106456;28;20062;-72
2022/11/11 05:37:28;;;;;;;10.90;5.53;;;11.60;99.90;;;;;;5104471;28;20043;-71
2022/11/11 05:39:53;;;;;;;13.68;5.60;;;11.60;99.90;;;;;;5105466;28;20073;-72
2022/11/11 05:42:19;;;;;;;13.07;6.40;;;11.50;99.90;;;;;;5102034;28;20525;-72
2022/11/11 05:44:45;;;;;;;10.77;6.13;;;11.50;99.90;;;;;;5088182;28;20036;-72
2022/11/11 05:47:11;;;;;;;10.20;5.70;;;11.50;99.90;;;;;;5106151;28;20099;-72
2022/11/11 05:49:37;;;;;;;13.82;6.57;;;11.60;99.90;;;;;;5102751;27;20023;-71
2022/11/11 05:52:04;;;;;;;12.45;6.03;;;11.50;99.90;;;;;;5102646;28;20055;-71
2022/11/11 05:54:30;;;;;;;12.48;6.72;;;11.50;99.90;;;;;;5102334;28;20034;-71
2022/11/11 05:56:55;;;;;;;15.00;6.40;;;11.50;99.90;;;;;;5101955;28;20019;-71
2022/11/11 05:59:21;;;;;;;12.57;5.88;;;11.50;99.90;;;;;;5097459;28;20031;-71
2022/11/11 06:01:48;;;;;;;12.88;7.28;;;11.50;99.90;;;;;;5086748;28;20020;-71
2022/11/11 06:04:15;;;;;;;18.52;7.55;;;11.50;99.90;;;;;;5103511;28;20390;-71
2022/11/11 06:06:40;;;;;;;16.25;7.22;;;11.50;99.90;;;;;;5105699;28;20020;-73
2022/11/11 06:09:06;;;;;;;17.77;7.43;;;11.50;99.90;;;;;;5082503;28;20033;-71
2022/11/11 06:11:33;;;;;;;11.20;7.00;;;11.40;99.90;;;;;;5080693;28;20130;-72
2022/11/11 06:13:58;;;;;;;16.45;7.75;;;11.50;99.90;;;;;;5097428;28;20036;-72
2022/11/11 06:16:24;;;;;;;21.63;8.15;;;11.40;99.90;;;;;;5098470;28;20958;-72
2022/11/11 06:18:51;;;;;;;11.00;7.28;;;11.50;99.90;;;;;;5100395;28;20031;-72
2022/11/11 06:21:17;;;;;;;16.52;7.93;;;11.50;99.90;;;;;;5071716;28;20023;-73
2022/11/11 06:23:43;;;;;;;16.63;8.55;;;11.40;99.90;;;;;;5103086;28;20023;-73
2022/11/11 06:26:13;;;;;;;14.55;8.05;;;11.40;99.90;;;;;;5100072;28;20054;-72
2022/11/11 06:28:39;;;;;;;16.65;7.95;;;11.40;99.90;;;;;;5078377;28;20031;-72
2022/11/11 06:31:06;;;;;;;24.17;8.32;;;11.40;99.90;;;;;;5075610;28;20467;-74
2022/11/11 06:33:36;;;;;;;15.25;7.95;;;11.40;99.90;;;;;;5101257;28;20024;-72
2022/11/11 06:36:04;;;;;;;14.35;8.38;;;11.40;99.90;;;;;;5092071;28;20028;-71
2022/11/11 06:38:30;;;;;;;14.25;8.35;;;11.40;99.90;;;;;;5093767;28;20570;-71
2022/11/11 06:40:56;;;;;;;15.02;8.75;;;11.40;99.90;;;;;;5106017;28;20032;-70
2022/11/11 06:43:22;;;;;;;18.83;9.02;;;11.40;99.90;;;;;;5103980;28;20058;-71
2022/11/11 06:45:53;;;;;;;17.83;9.45;;;11.40;99.90;;;;;;5083090;28;20027;-71
2022/11/11 06:48:20;;;;;;;24.25;9.32;;;11.40;99.90;;;;;;5100599;28;20028;-72
2022/11/11 06:50:47;;;;;;;20.10;9.90;;;11.50;99.90;;;;;;5087139;28;20019;-71
2022/11/11 06:53:14;;;;;;;22.23;10.55;;;11.40;99.90;;;;;;5101130;28;20547;-71
2022/11/11 06:55:41;;;;;;;19.73;10.07;;;11.40;99.90;;;;;;5088742;28;20036;-72
2022/11/11 06:58:09;;;;;;;22.38;10.68;;;11.40;99.90;;;;;;5103452;28;20028;-71
2022/11/11 07:00:35;;;;;;;19.75;10.40;;;11.40;99.90;;;;;;5071189;28;20674;-71
2022/11/11 07:03:02;;;;;;;21.40;10.70;;;11.40;99.90;;;;;;5099369;28;20028;-71
2022/11/11 07:05:28;;;;;;;25.05;11.93;;;11.40;99.90;;;;;;5103067;28;20023;-71
2022/11/11 07:07:53;;;;;;;25.27;10.35;;;11.40;99.90;;;;;;5103878;28;20064;-71
2022/11/11 07:10:19;;;;;;;18.90;10.10;;;11.40;99.90;;;;;;5107073;28;20111;-71
2022/11/11 07:12:45;;;;;;;21.20;11.05;;;11.40;99.90;;;;;;5105021;28;20526;-71
2022/11/11 07:15:12;;;;;;;30.45;11.68;;;11.40;99.90;;;;;;5068607;28;20060;-71
2022/11/11 07:17:38;;;;;;;22.08;11.27;;;11.40;99.90;;;;;;5106518;28;20035;-71
2022/11/11 07:20:04;;;;;;;25.23;11.13;;;11.40;99.90;;;;;;5088837;28;20096;-71
2022/11/11 07:22:30;;;;;;;27.40;11.85;;;11.30;99.90;;;;;;5096659;28;20028;-71
2022/11/11 07:24:58;;;;;;;24.92;11.07;;;11.40;99.90;;;;;;5100940;28;20031;-72
2022/11/11 07:27:24;;;;;;;24.92;10.93;;;11.40;99.90;;;;;;5109972;27;20091;-71
2022/11/11 07:29:49;;;;;;;21.48;10.60;;;11.30;99.90;;;;;;5104643;28;20131;-71
2022/11/11 07:32:16;;;;;;;25.05;10.65;;;11.30;99.90;;;;;;5088660;28;20388;-71
2022/11/11 07:34:43;;;;;;;23.63;11.82;;;11.30;99.90;;;;;;5089314;28;20110;-71
2022/11/11 07:37:09;;;;;;;22.05;10.70;;;11.30;99.90;;;;;;5108636;28;20033;-72
2022/11/11 07:39:35;;;;;;;23.52;11.73;;;11.30;99.90;;;;;;5085034;28;20028;-71
2022/11/11 07:42:01;;;;;;;23.77;11.43;;;11.20;99.90;;;;;;5082131;28;20496;-71
2022/11/11 07:44:27;;;;;;;22.75;12.02;;;11.30;99.90;;;;;;5086582;28;20096;-71
2022/11/11 07:46:52;;;;;;;23.73;11.98;;;11.30;99.90;;;;;;5106463;28;20499;-72
2022/11/11 07:49:18;;;;;;;28.77;12.45;;;11.30;99.90;;;;;;5089552;28;20323;-72
2022/11/11 07:51:44;;;;;;;23.75;11.60;;;11.30;99.90;;;;;;5109214;27;20022;-72
2022/11/11 07:54:10;;;;;;;23.02;11.68;;;12.00;99.90;;;;;;5086187;28;20040;-72
2022/11/11 07:56:35;;;;;;;23.60;12.50;;;11.70;99.90;;;;;;5101140;28;20035;-72
2022/11/11 07:59:01;;;;;;;30.52;12.73;;;11.50;99.90;;;;;;5099863;28;20368;-72
2022/11/11 08:01:27;;;;;;;25.08;12.45;;;11.40;99.90;;;;;;5087772;28;20031;-73
2022/11/11 08:03:53;;;;;;;28.40;13.48;;;11.40;99.90;;;;;;5105202;27;20042;-72
2022/11/11 08:06:20;;;;;;;29.10;14.18;;;11.40;99.90;;;;;;5091295;28;20027;-73
2022/11/11 08:08:46;;;;;;;31.33;13.20;;;11.40;99.90;;;;;;5103784;28;20039;-72
2022/11/11 08:11:13;;;;;;;32.88;13.95;;;11.40;99.90;;;;;;5090252;28;20040;-72
2022/11/11 08:13:39;;;;;;;24.75;13.05;;;11.40;99.90;;;;;;5087958;28;20682;-72
2022/11/11 08:16:13;;;;;;;28.23;12.50;;;11.40;99.90;;;;;;5106555;27;20118;-72
2022/11/11 08:18:40;;;;;;;27.98;13.07;;;11.40;99.90;;;;;;5106296;28;20386;-72
2022/11/11 08:21:09;;;;;;;22.02;12.80;;;11.40;99.90;;;;;;5089406;28;20035;-72
2022/11/11 08:23:35;;;;;;;27.70;13.60;;;11.40;99.90;;;;;;5089779;28;20148;-72
2022/11/11 08:26:03;;;;;;;29.48;13.00;;;11.40;99.90;;;;;;5084419;28;20529;-71
2022/11/11 08:28:32;;;;;;;30.73;13.32;;;11.40;99.90;;;;;;5087106;28;20027;-72
2022/11/11 08:30:59;;;;;;;25.17;13.45;;;11.40;99.90;;;;;;5106038;28;20073;-72
2022/11/11 08:33:26;;;;;;;25.40;13.55;;;11.40;99.90;;;;;;5090749;28;20038;-72
2022/11/11 08:35:54;;;;;;;28.05;13.02;;;11.30;99.90;;;;;;5101854;28;20027;-72
2022/11/11 08:38:22;;;;;;;27.38;13.73;;;11.40;99.90;;;;;;5104507;27;20177;-71
2022/11/11 08:40:48;;;;;;;25.25;13.60;;;11.40;99.90;;;;;;5087404;28;20562;-72
2022/11/11 08:43:14;;;;;;;32.97;13.88;;;11.40;99.90;;;;;;5104789;28;20085;-72
2022/11/11 08:45:39;;;;;;;28.75;13.57;;;11.40;99.90;;;;;;5106013;28;20028;-72
2022/11/11 08:48:06;;;;;;;28.08;14.05;;;11.50;99.90;;;;;;5088934;28;20012;-72
2022/11/11 08:50:32;;;;;;;28.00;12.88;;;11.50;99.90;;;;;;5089277;28;20031;-72
2022/11/11 08:52:57;;;;;;;25.75;13.60;;;11.50;99.90;;;;;;5102981;28;20032;-72
2022/11/11 08:55:23;;;;;;;27.35;13.55;;;11.50;99.90;;;;;;5087287;28;20503;-72
2022/11/11 08:57:58;;;;;;;24.80;13.43;;;11.50;99.90;;;;;;5090783;28;20040;-72
2022/11/11 09:00:23;;;;;;;23.05;13.98;;;11.50;99.90;;;;;;5083491;28;20039;-72
2022/11/11 09:02:49;;;;;;;24.23;14.55;;;11.50;99.90;;;;;;5094961;28;20024;-72
2022/11/11 09:05:15;;;;;;;25.40;14.18;;;11.50;99.90;;;;;;5104397;28;20054;-72
2022/11/11 09:07:41;;;;;;;25.50;14.52;;;11.50;99.90;;;;;;5102991;28;20031;-72
2022/11/11 09:10:07;;;;;;;28.60;14.48;;;11.50;99.90;;;;;;5086375;28;20039;-72
2022/11/11 09:12:33;;;;;;;25.50;14.10;;;11.50;99.90;;;;;;5102464;27;20038;-72
2022/11/11 09:15:00;;;;;;;27.13;14.15;;;11.50;99.90;;;;;;5083262;28;20028;-73
2022/11/11 09:17:26;;;;;;;25.48;13.80;;;11.60;99.90;;;;;;5087478;28;20038;-72
2022/11/11 09:19:52;;;;;;;24.08;14.45;;;11.50;99.90;;;;;;5096445;28;20038;-71
2022/11/11 09:22:18;;;;;;;26.88;13.25;;;11.60;99.90;;;;;;5105104;28;20492;-72
2022/11/11 09:24:44;;;;;;;22.88;13.30;;;11.60;99.90;;;;;;5100818;28;20547;-72
2022/11/11 09:27:10;;;;;;;27.48;13.88;;;11.60;99.90;;;;;;5086673;28;20031;-72
2022/11/11 09:29:36;;;;;;;29.77;15.50;;;11.60;99.90;;;;;;5099006;28;20053;-72
2022/11/11 09:32:02;;;;;;;23.15;13.98;;;11.60;99.90;;;;;;5105752;28;20196;-71
2022/11/11 09:34:29;;;;;;;23.52;13.70;;;11.60;99.90;;;;;;5099194;28;20426;-72
2022/11/11 09:36:55;;;;;;;27.50;14.20;;;11.70;99.90;;;;;;5106117;28;20429;-72
2022/11/11 09:39:21;;;;;;;34.50;13.23;;;11.70;99.90;;;;;;5100809;28;20084;-72
2022/11/11 09:42:21;;;;;;;22.20;13.57;;;11.70;99.90;;;;;;5070126;28;20062;-72
2022/11/11 09:45:05;;;;;;;27.52;12.93;;;11.70;99.90;;;;;;5098533;28;20081;-73
2022/11/11 09:47:37;;;;;;;26.80;12.57;;;11.70;99.90;;;;;;5090893;28;20023;-72
2022/11/11 09:50:05;;;;;;;24.23;12.95;;;11.70;99.90;;;;;;5089316;28;20410;-72
2022/11/11 09:52:35;;;;;;;29.52;13.23;;;11.70;99.90;;;;;;5106173;28;20023;-72
2022/11/11 09:55:15;;;;;;;26.25;13.93;;;11.70;99.90;;;;;;5089474;28;20115;-73
2022/11/11 09:57:52;;;;;;;25.27;14.48;;;11.70;99.90;;;;;;5107006;28;20410;-72
2022/11/11 10:00:24;;;;;;;25.38;13.38;;;11.70;99.90;;;;;;5102326;28;20028;-72
2022/11/11 10:02:58;;;;;;;21.40;13.48;;;11.70;99.90;;;;;;5099553;28;20055;-72
2022/11/11 10:05:30;;;;;;;23.23;13.30;;;11.70;99.90;;;;;;5086687;28;20570;-72
2022/11/11 10:08:16;;;;;;;25.73;13.93;;;11.70;99.90;;;;;;5103345;28;20031;-72
2022/11/11 10:10:48;;;;;;;25.15;14.18;;;11.70;99.90;;;;;;5100209;28;20028;-72
2022/11/11 10:13:28;;;;;;;30.50;13.70;;;11.80;99.90;;;;;;5102952;28;20084;-72
2022/11/11 10:16:42;;;;;;;23.05;12.80;;;11.80;99.90;;;;;;5095703;28;20039;-72
2022/11/11 10:19:31;;;;;;;22.92;12.90;;;11.80;99.90;;;;;;5063618;28;20043;-72
2022/11/11 10:22:37;;;;;;;19.73;12.48;;;11.80;99.90;;;;;;5101113;28;20089;-73
2022/11/11 10:25:11;;;;;;;21.13;13.10;;;11.80;99.90;;;;;;5033859;28;20375;-72
2022/11/11 10:27:52;;;;;;;27.70;14.10;;;11.80;99.90;;;;;;5075618;28;20039;-72
2022/11/11 10:30:38;;;;;;;23.08;13.93;;;11.80;99.90;;;;;;5102319;28;20054;-72
2022/11/11 10:33:18;;;;;;;27.92;14.38;;;11.80;99.90;;;;;;5104849;28;20039;-72
2022/11/11 10:35:47;;;;;;;26.02;13.38;;;11.90;99.90;;;;;;5104757;28;20044;-72
2022/11/11 10:38:44;;;;;;;23.58;15.10;;;11.90;99.90;;;;;;5102534;28;20031;-72
2022/11/11 10:41:39;;;;;;;19.90;13.10;;;12.00;99.90;;;;;;5090379;28;20460;-72
2022/11/11 10:44:32;;;;;;;22.77;13.60;;;12.00;99.90;;;;;;5071151;28;20511;-72
2022/11/11 10:47:05;;;;;;;26.40;14.32;;;12.00;99.90;;;;;;5081950;28;20396;-72
2022/11/11 10:50:12;;;;;;;20.38;13.30;;;12.00;99.90;;;;;;5102722;28;20509;-72
2022/11/11 10:52:47;;;;;;;26.50;13.73;;;12.00;99.90;;;;;;5047428;28;20397;-72
2022/11/11 10:55:25;;;;;;;23.77;13.55;;;12.00;99.90;;;;;;5096937;28;20123;-72
2022/11/11 10:58:00;;;;;;;23.10;13.38;;;12.00;99.90;;;;;;5105408;28;20034;-72
2022/11/11 11:00:27;;;;;;;18.98;12.07;;;12.00;99.90;;;;;;5106094;28;20253;-72
2022/11/11 11:02:58;;;;;;;22.90;12.85;;;12.00;99.90;;;;;;5108522;28;20028;-73
2022/11/11 11:05:31;;;;;;;;;;;12.10;99.90;;;;;;5091497;28;20107;-72
2022/11/11 11:08:05;;;;;;;24.67;13.98;;;12.10;99.90;;;;;;5107434;28;19912;-72
2022/11/11 11:10:40;;;;;;;24.42;13.57;;;12.00;99.90;;;;;;5089643;28;20031;-72
2022/11/11 11:13:17;;;;;;;24.83;13.98;;;12.10;99.90;;;;;;5100931;28;20173;-71
2022/11/11 11:15:51;;;;;;;28.05;14.10;;;12.00;99.90;;;;;;5071040;27;20039;-72
2022/11/11 11:18:18;;;;;;;27.20;12.88;;;12.00;99.90;;;;;;5107105;28;20371;-72
2022/11/11 11:20:56;;;;;;;22.98;13.82;;;12.10;99.90;;;;;;5106719;28;20034;-72
2022/11/11 11:23:42;;;;;;;20.60;12.45;;;12.00;99.90;;;;;;5107238;28;20031;-72
2022/11/11 11:26:09;;;;;;;26.23;13.20;;;12.10;99.90;;;;;;5088023;28;20106;-72
2022/11/11 11:28:55;;;;;;;20.85;12.95;;;12.10;99.90;;;;;;5086483;28;20055;-72
2022/11/11 11:31:41;;;;;;;27.55;13.93;;;12.10;99.90;;;;;;5091938;28;20034;-72
2022/11/11 11:34:07;;;;;;;25.02;13.65;;;12.10;99.90;;;;;;5092284;28;20609;-73
2022/11/11 11:36:33;;;;;;;26.83;13.48;;;12.00;99.90;;;;;;5103648;28;20035;-73
2022/11/11 11:39:00;;;;;;;22.80;13.55;;;12.10;99.90;;;;;;5105826;28;20562;-72
2022/11/11 11:41:43;;;;;;;20.17;12.55;;;12.00;99.90;;;;;;5091391;28;20055;-72
2022/11/11 11:44:29;;;;;;;23.17;13.63;;;12.10;99.90;;;;;;5106441;28;20422;-72
2022/11/11 11:47:04;;;;;;;21.02;13.05;;;12.10;99.90;;;;;;5108932;28;20023;-72
2022/11/11 11:50:14;;;;;;;22.52;12.45;;;12.10;99.90;;;;;;5088041;28;20066;-72
2022/11/11 11:53:21;;;;;;;27.77;13.75;;;12.10;99.90;;;;;;5090728;28;20074;-72
2022/11/11 11:56:00;;;;;;;23.98;12.90;;;12.10;99.90;;;;;;5075241;28;20495;-72
2022/11/11 11:58:50;;;;;;;27.48;14.32;;;12.10;99.90;;;;;;5091079;28;20092;-72
2022/11/11 12:01:23;;;;;;;22.33;13.37;;;12.10;99.90;;;;;;5104628;28;20494;-72
2022/11/11 12:03:49;;;;;;;26.52;14.45;;;12.10;99.90;;;;;;5090408;28;20089;-71
2022/11/11 12:06:28;;;;;;;27.25;15.02;;;12.10;99.90;;;;;;5088204;28;20513;-72
2022/11/11 12:09:06;;;;;;;22.23;13.90;;;12.10;99.90;;;;;;5109200;28;20038;-72
2022/11/11 12:11:53;;;;;;;19.65;12.68;;;12.10;99.90;;;;;;5091391;28;20032;-71
2022/11/11 12:14:51;;;;;;;28.63;14.57;;;12.10;99.90;;;;;;5108170;28;20076;-71
2022/11/11 12:17:45;;;;;;;23.48;13.63;;;12.10;99.90;;;;;;5087953;28;20047;-71
2022/11/11 12:20:27;;;;;;;23.60;13.90;;;12.00;99.90;;;;;;5089777;28;20070;-72
2022/11/11 12:23:18;;;;;;;22.73;13.60;;;12.00;99.90;;;;;;5104043;28;20059;-72
2022/11/11 12:26:02;;;;;;;26.60;14.55;;;12.00;99.90;;;;;;5103864;28;20535;-72
2022/11/11 12:28:51;;;;;;;25.60;13.65;;;11.90;99.90;;;;;;5104950;28;20020;-72
2022/11/11 12:31:35;;;;;;;22.88;14.25;;;11.90;99.90;;;;;;5101188;28;20436;-72
2022/11/11 12:34:06;;;;;;;23.92;13.60;;;11.90;99.90;;;;;;5102812;28;20032;-72
2022/11/11 12:36:42;;;;;;;21.23;13.02;;;11.90;99.90;;;;;;5089421;28;20063;-72
2022/11/11 12:39:42;;;;;;;19.40;12.40;;;11.90;99.90;;;;;;5105271;28;20567;-72
2022/11/11 12:42:33;;;;;;;25.73;12.80;;;11.90;99.90;;;;;;5108242;27;20142;-72
2022/11/11 12:44:59;;;;;;;20.73;10.85;;;12.00;99.90;;;;;;5089015;28;20031;-72
2022/11/11 12:47:38;;;;;;;20.85;12.32;;;12.00;99.90;;;;;;5087234;28;20028;-72
2022/11/11 12:50:14;;;;;;;23.13;12.98;;;12.10;99.90;;;;;;5090157;28;20514;-71
2022/11/11 12:52:58;;;;;;;22.08;13.23;;;12.00;99.90;;;;;;5107762;28;20426;-71
2022/11/11 12:55:45;;;;;;;19.10;12.40;;;12.10;99.90;;;;;;5106725;28;20088;-71
2022/11/11 12:58:37;;;;;;;20.25;12.68;;;12.10;99.90;;;;;;5106444;27;20023;-71
2022/11/11 13:01:16;;;;;;;18.88;12.63;;;12.00;99.90;;;;;;5105338;28;20149;-72
2022/11/11 13:03:57;;;;;;;22.63;13.30;;;12.00;99.90;;;;;;5106576;27;20031;-71
2022/11/11 13:06:52;;;;;;;334.15;187.57;;;12.00;99.90;;;;;;5103652;28;20043;-72
2022/11/11 13:09:37;;;;;;;188.50;113.32;;;12.00;99.90;;;;;;5084007;28;20123;-72
2022/11/11 13:12:49;;;;;;;229.50;141.52;;;12.00;99.90;;;;;;5084344;28;20031;-71
2022/11/11 13:15:26;;;;;;;22.40;14.55;;;12.00;99.90;;;;;;5083948;28;20046;-72
2022/11/11 13:17:52;;;;;;;21.60;13.73;;;12.00;99.90;;;;;;5104740;27;20028;-71
2022/11/11 13:20:53;;;;;;;20.90;14.23;;;12.00;99.90;;;;;;5089309;28;20038;-71
2022/11/11 13:23:19;;;;;;;21.70;13.77;;;12.00;99.90;;;;;;5089546;28;20040;-71
2022/11/11 13:25:56;;;;;;;21.75;14.15;;;12.00;99.90;;;;;;5104574;28;20068;-71
2022/11/11 13:28:27;;;;;;;22.42;14.93;;;12.00;99.90;;;;;;5086250;28;20031;-72
2022/11/11 13:31:00;;;;;;;25.77;14.05;;;12.00;99.90;;;;;;5101808;27;20039;-72
2022/11/11 13:34:01;;;;;;;22.77;14.43;;;12.00;99.90;;;;;;5103517;28;20092;-72
2022/11/11 13:36:30;;;;;;;20.23;13.35;;;12.00;99.90;;;;;;5088290;28;20035;-72
2022/11/11 13:39:03;;;;;;;18.92;13.68;;;12.00;99.90;;;;;;5099576;27;20446;-71
2022/11/11 13:41:41;;;;;;;23.83;13.95;;;12.00;99.90;;;;;;5106362;28;20520;-72
2022/11/11 13:44:08;;;;;;;22.38;15.10;;;12.00;99.90;;;;;;5105642;28;20038;-71
2022/11/11 13:46:42;;;;;;;20.63;15.07;;;12.00;99.90;;;;;;5099396;27;20162;-71
2022/11/11 13:49:31;;;;;;;21.88;14.80;;;12.00;99.90;;;;;;5109872;28;20062;-72
2022/11/11 13:52:33;;;;;;;26.33;14.68;;;12.00;99.90;;;;;;5112228;28;20512;-72
2022/11/11 13:55:20;;;;;;;24.08;14.25;;;12.10;99.90;;;;;;5101454;28;20042;-72
2022/11/11 13:57:51;;;;;;;24.15;14.95;;;12.10;99.90;;;;;;5104670;28;20534;-72